Time;durP1;ratioP1;P1;durP2;ratioP2;P2;SDS_P1;SDS_P2;PMS_P1;PMS_P2;Temp;Humidity;BMP_temperature;BMP_pressure;BME280_temperature;BME280_humidity;BME280_pressure;Samples;Min_cycle;Max_cycle;Signal;HPM_P1;HPM_P2
2021/09/16 00:02:05;;;;;;;41.60;22.10;;;;;;;9.46;74.97;99833.55;115158;1208;138277;-59
2021/09/16 00:04:34;;;;;;;46.10;22.80;;;;;;;9.44;74.90;99834.55;115274;1208;23515;-60
2021/09/16 00:07:03;;;;;;;50.20;24.20;;;;;;;9.43;74.93;99837.89;115191;1205;138127;-60
2021/09/16 00:09:51;;;;;;;47.00;22.90;;;;;;;9.43;75.04;99839.90;115302;1213;22998;-60
2021/09/16 00:12:39;;;;;;;44.30;22.30;;;;;;;9.42;74.95;99836.30;115279;1207;22368;-60
2021/09/16 00:15:09;;;;;;;47.90;21.90;;;;;;;9.40;74.91;99839.58;115215;1205;137981;-60
2021/09/16 00:17:38;;;;;;;48.10;23.40;;;;;;;9.41;74.88;99840.95;115345;1208;23227;-60
2021/09/16 00:20:09;;;;;;;38.90;21.80;;;;;;;9.40;74.81;99838.74;115250;1207;137824;-60
2021/09/16 00:22:39;;;;;;;44.40;21.20;;;;;;;9.39;74.80;99838.67;115242;1207;22792;-60
2021/09/16 00:25:27;;;;;;;42.50;21.90;;;;;;;9.38;74.80;99842.64;115125;1203;139194;-60
2021/09/16 00:27:56;;;;;;;42.60;21.30;;;;;;;9.37;74.82;99845.02;115382;1214;23298;-60
2021/09/16 00:30:24;;;;;;;41.40;21.40;;;;;;;9.35;74.83;99843.18;115291;1207;22878;-60
2021/09/16 00:32:52;;;;;;;47.80;22.10;;;;;;;9.34;74.68;99841.95;115196;1205;137914;-60
2021/09/16 00:35:22;;;;;;;33.50;21.60;;;;;;;9.33;74.76;99842.81;114999;1208;22446;-60
2021/09/16 00:37:50;;;;;;;46.50;21.00;;;;;;;9.31;74.64;99843.48;115229;1204;137932;-60
2021/09/16 00:40:32;;;;;;;43.20;20.60;;;;;;;9.28;74.66;99843.78;115309;1213;24287;-60
2021/09/16 00:43:00;;;;;;;46.40;21.10;;;;;;;9.26;74.68;99845.42;115209;1204;138970;-59
2021/09/16 00:45:29;;;;;;;46.60;22.20;;;;;;;9.23;74.69;99852.77;115310;1207;22391;-60
2021/09/16 00:47:57;;;;;;;35.30;19.10;;;;;;;9.21;74.93;99851.94;115364;1207;22965;-60
2021/09/16 00:50:25;;;;;;;47.70;22.20;;;;;;;9.18;74.70;99851.48;115198;1207;137864;-60
2021/09/16 00:52:54;;;;;;;42.90;20.10;;;;;;;9.17;74.63;99852.83;115346;1214;22342;-60
2021/09/16 00:55:23;;;;;;;39.70;20.80;;;;;;;9.14;74.60;99853.52;115217;1209;138013;-60
2021/09/16 00:57:52;;;;;;;43.70;20.00;;;;;;;9.13;74.65;99853.38;115357;1214;22333;-60
2021/09/16 01:00:20;;;;;;;52.80;21.30;;;;;;;9.10;74.62;99852.35;115253;1212;22402;-59
2021/09/16 01:02:48;;;;;;;39.10;21.30;;;;;;;9.06;74.88;99853.91;115175;1203;138194;-59
2021/09/16 01:05:17;;;;;;;42.30;20.20;;;;;;;9.03;74.93;99858.73;115336;1208;22389;-59
2021/09/16 01:07:45;;;;;;;40.60;21.60;;;;;;;8.99;74.90;99858.42;115232;1205;138117;-59
2021/09/16 01:10:13;;;;;;;37.90;20.20;;;;;;;8.97;74.90;99858.84;115319;1208;22268;-59
2021/09/16 01:12:41;;;;;;;40.00;19.80;;;;;;;8.96;74.93;99856.48;115366;1207;23432;-60
2021/09/16 01:15:10;;;;;;;44.10;20.40;;;;;;;8.94;75.18;99854.73;115122;1203;139088;-59
2021/09/16 01:17:46;;;;;;;52.20;24.10;;;;;;;8.92;75.12;99855.73;115330;1208;22468;-59
2021/09/16 01:20:15;;;;;;;41.50;19.40;;;;;;;8.92;75.43;99853.02;115289;1202;138773;-59
2021/09/16 01:22:52;;;;;;;43.40;21.20;;;;;;;8.94;75.43;99854.23;115332;1208;22352;-59
2021/09/16 01:25:27;;;;;;;39.20;20.20;;;;;;;8.93;75.43;99852.00;115211;1207;138933;-59
2021/09/16 01:27:56;;;;;;;45.50;19.40;;;;;;;8.92;75.33;99843.70;115342;1208;22404;-59
2021/09/16 01:30:25;;;;;;;46.00;20.40;;;;;;;8.92;75.22;99845.25;115253;1208;23266;-59
2021/09/16 01:32:54;;;;;;;42.90;20.70;;;;;;;8.90;75.20;99841.72;115221;1202;139890;-59
2021/09/16 01:35:23;;;;;;;48.30;19.50;;;;;;;8.89;75.26;99840.86;115361;1208;22344;-59
2021/09/16 01:37:51;;;;;;;34.80;19.90;;;;;;;8.87;75.36;99836.20;115198;1208;137918;-59
2021/09/16 01:40:20;;;;;;;35.50;18.80;;;;;;;8.86;75.54;99832.77;115353;1208;22379;-60
2021/09/16 01:42:49;;;;;;;37.40;18.60;;;;;;;8.86;75.41;99834.98;115288;1208;22361;-59
2021/09/16 01:45:19;;;;;;;33.80;19.00;;;;;;;8.84;75.33;99833.38;115208;1205;137629;-61
2021/09/16 01:47:48;;;;;;;44.80;20.60;;;;;;;8.83;75.26;99835.70;115350;1208;22148;-61
2021/09/16 01:50:36;;;;;;;35.80;18.70;;;;;;;8.80;75.46;99837.52;115212;1204;137963;-59
2021/09/16 01:53:21;;;;;;;39.30;19.10;;;;;;;8.77;75.75;99835.89;115325;1213;22367;-60
2021/09/16 01:56:09;;;;;;;;;;;;;;;8.74;75.91;99835.55;115269;1202;137947;-59
2021/09/16 01:58:43;;;;;;;39.20;17.00;;;;;;;8.70;76.00;99838.50;115336;1208;22279;-60
2021/09/16 02:01:16;;;;;;;36.60;17.20;;;;;;;8.67;76.06;99837.77;115255;1203;139168;-59
2021/09/16 02:03:48;;;;;;;46.10;17.80;;;;;;;8.65;76.16;99832.70;115332;1208;24408;-59
2021/09/16 02:06:16;;;;;;;36.20;17.20;;;;;;;8.63;76.06;99834.27;115305;1208;22237;-60
2021/09/16 02:08:44;;;;;;;36.80;17.80;;;;;;;8.62;76.02;99835.79;115277;1205;137926;-59
2021/09/16 02:11:12;;;;;;;52.80;18.40;;;;;;;8.62;76.15;99838.05;115322;1213;22401;-59
2021/09/16 02:13:41;;;;;;;35.10;18.40;;;;;;;8.60;76.24;99835.73;115213;1203;139107;-59
2021/09/16 02:16:09;;;;;;;37.10;17.60;;;;;;;8.60;76.24;99838.99;115376;1208;22317;-60
2021/09/16 02:18:37;;;;;;;36.60;17.90;;;;;;;8.60;76.24;99839.38;115316;1206;23484;-62
2021/09/16 02:21:06;;;;;;;32.80;17.80;;;;;;;8.59;76.44;99838.85;115263;1202;138714;-61
2021/09/16 02:23:35;;;;;;;35.10;16.50;;;;;;;8.59;76.71;99834.16;115317;1208;22299;-62
2021/09/16 02:26:03;;;;;;;37.80;15.80;;;;;;;8.58;76.72;99831.98;115203;1208;137951;-60
2021/09/16 02:28:33;;;;;;;37.60;17.60;;;;;;;8.57;76.73;99832.40;115371;1208;22236;-61
2021/09/16 02:31:01;;;;;;;31.20;16.10;;;;;;;8.58;76.66;99833.11;112324;1205;138963;-59
2021/09/16 02:33:32;;;;;;;34.40;15.40;;;;;;;8.55;76.71;99832.34;115304;1208;23495;-60
2021/09/16 02:36:00;;;;;;;33.50;15.50;;;;;;;8.53;76.68;99827.67;115390;1208;22373;-61
2021/09/16 02:38:28;;;;;;;30.40;15.40;;;;;;;8.52;76.31;99831.18;115219;1202;137849;-61
2021/09/16 02:40:56;;;;;;;29.30;15.00;;;;;;;8.51;76.30;99834.07;115397;1208;22351;-61
2021/09/16 02:43:25;;;;;;;33.90;15.00;;;;;;;8.49;76.52;99834.45;115230;1203;138106;-60
2021/09/16 02:46:06;;;;;;;34.80;14.90;;;;;;;8.47;76.42;99835.39;115353;1213;22320;-61
2021/09/16 02:48:34;;;;;;;28.30;16.20;;;;;;;8.47;76.41;99831.85;115405;1214;22122;-61
2021/09/16 02:51:02;;;;;;;33.30;16.10;;;;;;;8.46;76.69;99834.98;115144;1205;138159;-61
2021/09/16 02:53:32;;;;;;;31.90;16.60;;;;;;;8.46;76.75;99835.54;115310;1208;22467;-61
2021/09/16 02:56:01;;;;;;;29.20;15.70;;;;;;;8.46;76.61;99831.11;115201;1202;139848;-61
2021/09/16 02:58:30;;;;;;;32.40;15.30;;;;;;;8.45;76.60;99828.33;115356;1207;22328;-61
2021/09/16 03:00:59;;;;;;;33.50;15.30;;;;;;;8.46;76.42;99832.52;115396;1213;23034;-61
2021/09/16 03:03:27;;;;;;;30.50;14.40;;;;;;;8.46;76.45;99827.27;115188;1205;138442;-61
2021/09/16 03:05:55;;;;;;;40.40;16.30;;;;;;;8.47;76.48;99826.80;115312;1207;22374;-60
2021/09/16 03:08:43;;;;;;;34.20;15.10;;;;;;;8.46;76.62;99820.54;115293;1202;137953;-61
2021/09/16 03:11:12;;;;;;;39.20;15.60;;;;;;;8.48;76.25;99823.26;115340;1206;22339;-61
2021/09/16 03:13:59;;;;;;;;;;;;;;;8.48;76.27;99822.59;115221;1204;139025;-61
2021/09/16 03:16:47;;;;;;;34.90;15.20;;;;;;;8.49;76.52;99821.79;115317;1209;22334;-61
2021/09/16 03:19:16;;;;;;;34.50;15.40;;;;;;;8.50;76.79;99821.27;115173;1203;138633;-60
2021/09/16 03:25:19;;;;;;;41.50;19.20;;;;;;;8.56;76.80;99809.40;110956;1209;544831;-59
2021/09/16 03:28:07;;;;;;;51.90;21.20;;;;;;;8.58;77.03;99809.07;111938;1204;22492;-60
2021/09/16 03:30:37;;;;;;;50.10;21.90;;;;;;;8.61;77.24;99807.23;116228;1204;22343;-61
2021/09/16 03:33:06;;;;;;;55.20;20.60;;;;;;;8.65;77.66;99805.18;116106;1204;137210;-61
2021/09/16 03:35:34;;;;;;;56.30;22.00;;;;;;;8.69;78.17;99806.36;116195;1204;22284;-60
2021/09/16 03:38:04;;;;;;;59.40;20.70;;;;;;;8.76;78.57;99806.42;115959;1205;137710;-61
2021/09/16 03:40:34;;;;;;;65.80;21.30;;;;;;;8.84;78.70;99803.97;116099;1205;23096;-60
2021/09/16 03:43:02;;;;;;;62.60;22.90;;;;;;;8.91;78.90;99806.27;116082;1200;22379;-60
2021/09/16 03:45:30;;;;;;;70.10;22.60;;;;;;;8.99;79.16;99806.94;116031;1204;137518;-61
2021/09/16 03:47:58;;;;;;;86.50;37.80;;;;;;;9.08;79.22;99814.31;116116;1205;22246;-60
2021/09/16 03:50:46;;;;;;;61.60;25.30;;;;;;;9.17;79.33;99829.93;115979;1205;137755;-60
2021/09/16 03:53:35;;;;;;;62.90;22.10;;;;;;;9.26;79.09;99856.30;116085;1205;22326;-60
2021/09/16 03:56:03;;;;;;;50.20;23.20;;;;;;;9.29;78.94;99856.27;115962;1204;137548;-60
2021/09/16 03:58:31;;;;;;;57.70;23.30;;;;;;;9.35;79.04;99843.35;116070;1204;22318;-60
2021/09/16 04:01:00;;;;;;;52.20;19.40;;;;;;;9.46;79.26;99847.09;116119;1205;22303;-60
2021/09/16 04:03:29;;;;;;;46.30;20.40;;;;;;;9.56;79.35;99857.77;115976;1205;137489;-60
2021/09/16 04:05:58;;;;;;;58.70;19.90;;;;;;;9.66;79.17;99857.86;114693;1205;22426;-59
2021/09/16 04:08:32;;;;;;;38.00;18.70;;;;;;;9.79;79.30;99859.99;116147;1200;137950;-60
2021/09/16 04:11:02;;;;;;;47.00;19.50;;;;;;;9.91;79.31;99860.00;116246;1203;22323;-60
2021/09/16 04:13:43;;;;;;;66.50;20.30;;;;;;;10.03;79.30;99854.89;116109;1203;138201;-60
2021/09/16 04:16:12;;;;;;;55.60;19.60;;;;;;;10.14;79.44;99858.05;116224;1203;24740;-60
2021/09/16 04:18:40;;;;;;;54.40;19.00;;;;;;;10.24;79.46;99857.88;116199;1202;22332;-60
2021/09/16 04:21:10;;;;;;;52.50;19.20;;;;;;;10.36;79.23;99860.02;116122;1203;138910;-60
2021/09/16 04:23:44;;;;;;;42.40;18.60;;;;;;;10.49;78.96;99867.59;116280;1204;22262;-62
2021/09/16 04:26:14;;;;;;;46.20;17.20;;;;;;;10.63;78.76;99867.20;116088;1204;138081;-61
2021/09/16 04:28:43;;;;;;;36.80;16.50;;;;;;;10.79;79.01;99863.52;116260;1202;22284;-62
2021/09/16 04:31:11;;;;;;;39.00;16.30;;;;;;;10.97;79.09;99867.90;116131;1202;138278;-61
2021/09/16 04:33:39;;;;;;;37.10;16.30;;;;;;;11.20;78.97;99873.39;116263;1189;22273;-61
2021/09/16 04:36:07;;;;;;;32.20;15.90;;;;;;;11.43;78.40;99865.27;116185;1203;22338;-61
2021/09/16 04:38:35;;;;;;;37.20;15.70;;;;;;;11.68;78.17;99870.02;116106;1203;138833;-61
2021/09/16 04:41:03;;;;;;;40.70;16.10;;;;;;;11.93;77.82;99870.46;116269;1203;22322;-61
2021/09/16 04:43:32;;;;;;;28.40;14.40;;;;;;;12.19;77.45;99866.72;116498;1200;137916;-61
2021/09/16 04:46:00;;;;;;;34.80;15.40;;;;;;;12.45;76.62;99862.39;116623;1201;22339;-61
2021/09/16 04:48:28;;;;;;;30.70;13.60;;;;;;;12.72;76.05;99864.02;116655;1201;22327;-61
2021/09/16 04:50:56;;;;;;;30.50;13.10;;;;;;;12.94;75.55;99861.34;116497;1200;137674;-61
2021/09/16 04:53:26;;;;;;;48.10;13.70;;;;;;;13.15;74.98;99863.34;116682;1200;22363;-61
2021/09/16 04:55:54;;;;;;;43.20;13.00;;;;;;;13.31;74.87;99868.52;116502;1200;137849;-61
2021/09/16 04:58:42;;;;;;;35.00;13.30;;;;;;;13.47;74.48;99870.66;116609;1201;23173;-61
2021/09/16 05:01:10;;;;;;;19.90;9.50;;;;;;;13.57;74.33;99872.82;116532;1200;137795;-60
2021/09/16 05:03:41;;;;;;;20.10;9.40;;;;;;;13.70;73.85;99873.84;116559;1201;22316;-62
2021/09/16 05:06:11;;;;;;;19.50;9.40;;;;;;;13.82;73.54;99867.20;116557;1201;23179;-62
2021/09/16 05:08:40;;;;;;;21.90;9.10;;;;;;;13.94;73.39;99863.92;116506;1201;138800;-61
2021/09/16 05:11:09;;;;;;;12.70;8.30;;;;;;;14.05;73.19;99866.95;116564;1200;22337;-62
2021/09/16 05:13:49;;;;;;;14.30;7.50;;;;;;;14.17;73.22;99867.24;116521;1201;137693;-62
2021/09/16 05:16:17;;;;;;;15.00;7.60;;;;;;;14.29;73.02;99866.30;116626;1200;24432;-62
2021/09/16 05:19:06;;;;;;;9.40;6.50;;;;;;;14.41;72.56;99855.48;116619;1201;22357;-62
2021/09/16 05:21:34;;;;;;;13.30;5.80;;;;;;;14.50;72.11;99851.98;116505;1201;137502;-62
2021/09/16 05:24:02;;;;;;;15.90;5.90;;;;;;;14.60;71.87;99856.11;116595;1200;22489;-62
2021/09/16 05:26:50;;;;;;;25.70;7.30;;;;;;;14.69;71.42;99854.09;116516;1200;137526;-64
2021/09/16 05:29:18;;;;;;;13.80;6.00;;;;;;;14.76;70.65;99852.98;116583;1200;22812;-63
2021/09/16 05:31:48;;;;;;;31.60;6.80;;;;;;;14.83;70.36;99849.90;116501;1200;137896;-62
2021/09/16 05:34:26;;;;;;;14.40;6.30;;;;;;;14.92;70.34;99847.73;116629;1200;23058;-61
2021/09/16 05:36:54;;;;;;;14.00;5.80;;;;;;;15.01;68.72;99846.60;116626;1201;22191;-62
2021/09/16 05:39:22;;;;;;;23.30;5.70;;;;;;;15.08;67.14;99844.05;116514;1200;139326;-62
2021/09/16 05:41:53;;;;;;;10.40;4.40;;;;;;;15.13;66.34;99846.19;116622;1200;22344;-61
2021/09/16 05:44:21;;;;;;;17.70;4.40;;;;;;;15.18;64.73;99847.52;116531;1201;136809;-62
2021/09/16 05:46:49;;;;;;;22.50;6.30;;;;;;;15.26;62.53;99846.20;116647;1200;22346;-61
2021/09/16 05:49:20;;;;;;;16.30;6.40;;;;;;;15.32;61.85;99844.95;116590;1200;137822;-62
2021/09/16 05:51:53;;;;;;;14.00;5.40;;;;;;;15.38;61.96;99847.89;116626;1200;22470;-62
2021/09/16 05:54:26;;;;;;;12.60;5.10;;;;;;;15.47;62.54;99841.69;116606;1200;22334;-62
2021/09/16 05:56:54;;;;;;;13.80;5.00;;;;;;;15.57;61.98;99839.58;116540;1200;136759;-62
2021/09/16 05:59:25;;;;;;;8.70;4.50;;;;;;;15.65;60.66;99839.60;116663;1200;22402;-62
2021/09/16 06:01:53;;;;;;;12.00;5.20;;;;;;;15.70;59.00;99838.42;116498;1200;136813;-61
2021/09/16 06:04:22;;;;;;;10.40;3.80;;;;;;;15.76;57.52;99840.95;116649;1199;23246;-62
2021/09/16 06:06:50;;;;;;;152.00;76.20;;;;;;;15.81;54.98;99845.98;116632;1200;22239;-62
2021/09/16 06:09:18;;;;;;;54.20;28.80;;;;;;;15.88;55.12;99845.98;116558;1200;138314;-62
2021/09/16 06:11:48;;;;;;;40.70;21.60;;;;;;;15.98;55.68;99845.55;116586;1199;23246;-62
2021/09/16 06:14:16;;;;;;;58.20;30.40;;;;;;;16.05;55.92;99844.82;116547;1199;138197;-62
2021/09/16 06:16:48;;;;;;;37.70;19.40;;;;;;;16.14;56.39;99846.25;116725;1199;23002;-62
2021/09/16 06:19:18;;;;;;;19.00;6.80;;;;;;;16.24;56.29;99847.92;116680;1199;137383;-64
2021/09/16 06:21:46;;;;;;;11.40;4.70;;;;;;;16.32;55.96;99850.34;116856;1199;22357;-62
2021/09/16 06:24:15;;;;;;;9.40;3.40;;;;;;;16.41;54.79;99849.17;116715;1199;22284;-62
2021/09/16 06:26:45;;;;;;;9.40;3.70;;;;;;;16.49;54.40;99849.09;116710;1199;138731;-62
2021/09/16 06:29:14;;;;;;;12.30;4.50;;;;;;;16.56;54.45;99847.21;116682;1200;22381;-63
2021/09/16 06:31:42;;;;;;;14.90;4.50;;;;;;;16.65;54.41;99846.86;116552;1199;137193;-63
2021/09/16 06:34:10;;;;;;;13.10;4.00;;;;;;;16.74;54.01;99846.67;116874;1198;23200;-63
2021/09/16 06:36:38;;;;;;;21.80;4.90;;;;;;;16.81;52.69;99851.40;116844;1199;22294;-63
2021/09/16 06:39:08;;;;;;;10.60;4.30;;;;;;;16.86;52.88;99850.09;116546;1200;137319;-63
2021/09/16 06:41:37;;;;;;;10.90;4.20;;;;;;;16.93;52.96;99854.85;116709;1199;22374;-64
2021/09/16 06:44:07;;;;;;;12.10;3.50;;;;;;;16.97;52.51;99856.19;116575;1199;138906;-64
2021/09/16 06:46:35;;;;;;;10.50;3.60;;;;;;;17.00;51.93;99856.83;116713;1200;22337;-64
2021/09/16 06:49:04;;;;;;;9.10;3.40;;;;;;;17.02;51.67;99854.20;116897;1198;22392;-65
2021/09/16 06:51:47;;;;;;;10.00;4.30;;;;;;;17.06;51.77;99855.25;116727;1199;137235;-63
2021/09/16 06:54:15;;;;;;;8.00;3.70;;;;;;;17.09;51.25;99854.62;116890;1184;22409;-63
2021/09/16 06:56:44;;;;;;;15.40;4.10;;;;;;;17.12;50.81;99854.32;116714;1198;136702;-62
2021/09/16 06:59:12;;;;;;;11.80;3.80;;;;;;;17.16;51.16;99855.86;116827;1199;22300;-63
2021/09/16 07:01:41;;;;;;;11.90;4.10;;;;;;;17.21;50.55;99855.85;116618;1199;137675;-62
2021/09/16 07:04:09;;;;;;;14.20;4.40;;;;;;;17.25;50.40;99853.55;116739;1198;22594;-63
2021/09/16 07:06:39;;;;;;;20.20;7.40;;;;;;;17.28;49.98;99857.48;116788;1193;23362;-63
2021/09/16 07:09:10;;;;;;;16.40;4.60;;;;;;;17.31;49.87;99855.66;116576;1200;137368;-61
2021/09/16 07:11:38;;;;;;;15.50;4.60;;;;;;;17.35;49.31;99857.05;116808;1199;22265;-63
2021/09/16 07:14:07;;;;;;;10.00;4.30;;;;;;;17.37;49.36;99861.66;116758;1199;137566;-63
2021/09/16 07:16:35;;;;;;;19.10;8.40;;;;;;;17.39;50.03;99860.37;116811;1198;22325;-63
2021/09/16 07:19:03;;;;;;;21.50;10.00;;;;;;;17.43;49.37;99862.65;116822;1199;22142;-62
2021/09/16 07:21:33;;;;;;;17.40;6.60;;;;;;;17.49;49.05;99863.60;116759;1198;138284;-61
2021/09/16 07:24:01;;;;;;;12.00;4.60;;;;;;;17.56;48.38;99864.06;116718;1195;23337;-61
2021/09/16 07:26:29;;;;;;;17.30;5.00;;;;;;;17.63;48.44;99866.66;116763;1199;137078;-63
2021/09/16 07:28:59;;;;;;;17.90;4.40;;;;;;;17.69;48.04;99868.05;116901;1198;23020;-63
2021/09/16 07:31:49;;;;;;;10.90;4.80;;;;;;;17.75;48.66;99864.79;116573;1199;137218;-63
2021/09/16 07:34:18;;;;;;;11.40;4.30;;;;;;;17.80;48.09;99864.09;116798;1199;22322;-63
2021/09/16 07:36:47;;;;;;;12.10;3.90;;;;;;;17.83;48.31;99863.34;116691;1199;22329;-63
2021/09/16 07:39:16;;;;;;;23.40;4.50;;;;;;;17.88;48.74;99862.17;116699;1199;137541;-63
2021/09/16 07:41:46;;;;;;;7.50;3.60;;;;;;;17.93;48.47;99865.11;116870;1198;23887;-63
2021/09/16 07:44:15;;;;;;;10.20;3.80;;;;;;;17.96;47.20;99865.85;116738;1198;137030;-63
2021/09/16 07:46:44;;;;;;;9.10;3.80;;;;;;;17.95;47.44;99863.16;116777;1193;23297;-63
2021/09/16 07:49:12;;;;;;;7.00;3.80;;;;;;;17.95;47.88;99864.81;116758;1199;23045;-63
2021/09/16 07:51:40;;;;;;;14.70;3.70;;;;;;;17.95;47.75;99866.58;116746;1198;136884;-63
2021/09/16 07:54:11;;;;;;;13.40;4.40;;;;;;;17.97;48.30;99866.84;116789;1198;22468;-64
2021/09/16 07:56:39;;;;;;;18.70;4.10;;;;;;;17.98;47.95;99864.10;116555;1199;137089;-63
2021/09/16 07:59:08;;;;;;;14.10;5.70;;;;;;;18.02;47.65;99864.39;116765;1198;22326;-64
2021/09/16 08:01:36;;;;;;;13.50;5.00;;;;;;;18.06;47.71;99864.21;116733;1199;137880;-64
2021/09/16 08:04:05;;;;;;;13.20;4.80;;;;;;;18.09;47.17;99858.65;116786;1198;23305;-64
2021/09/16 08:06:33;;;;;;;12.70;4.50;;;;;;;18.14;46.78;99858.97;116734;1199;22383;-63
2021/09/16 08:09:03;;;;;;;15.60;3.90;;;;;;;18.17;45.72;99855.17;116757;1198;137726;-63
2021/09/16 08:11:31;;;;;;;11.90;3.40;;;;;;;18.18;46.57;99858.78;116638;1194;22346;-63
2021/09/16 08:14:00;;;;;;;33.40;5.90;;;;;;;18.21;45.73;99861.38;116652;1198;137494;-63
2021/09/16 08:16:30;;;;;;;20.50;5.90;;;;;;;18.20;45.36;99861.94;116690;1198;22224;-65
2021/09/16 08:18:59;;;;;;;19.00;4.10;;;;;;;18.18;45.23;99866.73;114660;1170;22481;-58
2021/09/16 08:21:27;;;;;;;16.00;3.60;;;;;;;18.16;45.25;99864.17;112574;1199;138053;-58
2021/09/16 08:23:59;;;;;;;12.50;3.20;;;;;;;18.16;45.31;99868.37;116732;1199;22367;-58
2021/09/16 08:26:27;;;;;;;12.90;3.60;;;;;;;18.16;45.09;99866.55;116805;1199;137561;-59
2021/09/16 08:28:56;;;;;;;12.10;3.20;;;;;;;18.16;44.98;99867.59;116803;1199;22230;-59
2021/09/16 08:31:24;;;;;;;13.00;3.50;;;;;;;18.18;44.69;99868.08;116568;1200;23259;-59
2021/09/16 08:33:53;;;;;;;19.00;3.50;;;;;;;18.20;44.48;99863.86;116676;1199;137030;-58
2021/09/16 08:36:26;;;;;;;13.00;3.50;;;;;;;18.24;44.91;99862.38;116911;1199;23230;-58
2021/09/16 08:38:55;;;;;;;16.90;5.90;;;;;;;18.29;45.45;99860.39;116732;1199;138690;-58
2021/09/16 08:41:23;;;;;;;8.80;3.90;;;;;;;18.36;45.92;99860.14;116853;1199;22446;-58
2021/09/16 08:43:52;;;;;;;9.30;2.80;;;;;;;18.43;45.06;99858.88;116524;1201;137657;-59
2021/09/16 08:46:21;;;;;;;6.30;2.90;;;;;;;18.45;44.57;99856.55;116808;1200;22371;-58
2021/09/16 08:48:50;;;;;;;11.00;3.40;;;;;;;18.46;44.87;99857.19;116906;1198;22324;-58
2021/09/16 08:51:38;;;;;;;14.40;3.90;;;;;;;18.45;44.64;99855.22;116437;1201;138949;-58
2021/09/16 08:54:08;;;;;;;9.10;3.60;;;;;;;18.47;45.16;99859.80;116696;1200;23416;-58
2021/09/16 08:56:37;;;;;;;12.40;3.90;;;;;;;18.48;45.22;99852.60;116838;1199;136971;-58
2021/09/16 08:59:07;;;;;;;8.00;3.90;;;;;;;18.49;45.09;99856.43;116578;1200;23070;-58
2021/09/16 09:01:35;;;;;;;11.00;4.20;;;;;;;18.49;44.05;99856.11;116841;1198;137751;-58
2021/09/16 09:04:04;;;;;;;13.50;4.40;;;;;;;18.47;44.21;99855.55;116842;1198;22270;-58
2021/09/16 09:06:36;;;;;;;17.90;5.10;;;;;;;18.44;44.71;99852.64;116851;1199;24740;-58
2021/09/16 09:09:18;;;;;;;10.10;4.10;;;;;;;18.43;44.60;99852.20;116739;1200;138672;-58
2021/09/16 09:11:55;;;;;;;12.60;4.20;;;;;;;18.45;45.48;99851.67;116842;1199;22348;-59
2021/09/16 09:14:29;;;;;;;10.90;3.40;;;;;;;18.52;46.10;99855.18;116717;1198;138269;-59
2021/09/16 09:16:58;;;;;;;10.00;4.00;;;;;;;18.59;46.22;99849.89;116879;1199;22562;-59
2021/09/16 09:19:30;;;;;;;10.00;3.70;;;;;;;18.66;46.18;99846.30;116878;1193;22344;-59
2021/09/16 09:22:00;;;;;;;10.70;4.60;;;;;;;18.72;45.38;99848.96;116448;1201;137899;-59
2021/09/16 09:24:31;;;;;;;10.90;4.20;;;;;;;18.76;44.71;99842.59;116644;1200;23050;-58
2021/09/16 09:27:00;;;;;;;15.00;3.90;;;;;;;18.79;44.93;99846.79;116815;1199;137143;-58
2021/09/16 09:29:28;;;;;;;12.00;4.10;;;;;;;18.83;44.83;99847.21;116836;1200;23210;-58
2021/09/16 09:32:14;;;;;;;12.90;4.30;;;;;;;18.86;44.36;99846.45;116695;1199;138440;-59
2021/09/16 09:34:42;;;;;;;9.60;4.40;;;;;;;18.89;45.33;99846.28;116869;1200;22399;-59
2021/09/16 09:37:13;;;;;;;13.20;4.30;;;;;;;18.93;45.84;99847.46;116640;1201;23167;-59
2021/09/16 09:39:44;;;;;;;13.40;4.00;;;;;;;18.98;45.41;99843.66;116574;1200;137656;-59
2021/09/16 09:42:28;;;;;;;17.20;4.50;;;;;;;19.01;45.35;99842.06;116827;1199;23097;-59
2021/09/16 09:45:05;;;;;;;9.00;4.40;;;;;;;19.04;45.57;99839.23;116498;1199;137171;-58
2021/09/16 09:47:40;;;;;;;12.40;4.20;;;;;;;19.06;45.14;99834.60;116888;1198;22438;-59
2021/09/16 09:50:21;;;;;;;9.80;4.70;;;;;;;19.08;44.39;99829.91;116654;1199;139100;-58
2021/09/16 09:52:51;;;;;;;14.30;4.70;;;;;;;19.09;44.38;99822.06;116919;1199;22349;-59
2021/09/16 09:55:23;;;;;;;10.30;4.90;;;;;;;19.11;44.33;99827.11;116788;1199;22217;-59
2021/09/16 09:58:02;;;;;;;11.60;5.20;;;;;;;19.11;44.09;99821.59;116709;1193;138022;-58
2021/09/16 10:00:30;;;;;;;11.60;4.30;;;;;;;19.09;44.24;99823.39;116843;1200;22238;-59
2021/09/16 10:03:00;;;;;;;14.90;4.10;;;;;;;19.07;44.79;99822.81;116646;1199;137249;-59
2021/09/16 10:05:33;;;;;;;16.40;5.60;;;;;;;19.08;44.67;99823.29;116752;1199;22307;-58
2021/09/16 10:08:04;;;;;;;7.90;4.40;;;;;;;19.10;44.29;99819.90;116543;1199;139100;-58
2021/09/16 10:10:34;;;;;;;12.70;4.90;;;;;;;19.12;44.94;99821.84;116678;1199;22498;-58
2021/09/16 10:13:02;;;;;;;12.50;4.60;;;;;;;19.14;44.83;99820.92;116631;1198;23364;-58
2021/09/16 10:15:31;;;;;;;9.00;4.60;;;;;;;19.16;44.64;99816.41;116600;1200;137355;-59
2021/09/16 10:18:19;;;;;;;14.70;5.10;;;;;;;19.18;44.06;99815.06;116607;1200;22259;-59
2021/09/16 10:20:48;;;;;;;9.40;4.70;;;;;;;19.19;44.10;99812.91;116470;1198;137179;-58
2021/09/16 10:23:16;;;;;;;10.60;4.20;;;;;;;19.22;44.20;99815.52;116425;1200;23182;-58
2021/09/16 10:25:47;;;;;;;11.20;4.80;;;;;;;19.24;44.00;99810.89;115609;1199;137408;-59
2021/09/16 10:28:15;;;;;;;14.50;4.70;;;;;;;19.25;44.29;99814.18;116879;1193;22327;-58
2021/09/16 10:30:56;;;;;;;16.50;5.10;;;;;;;19.26;44.58;99810.95;116921;1199;22307;-58
2021/09/16 10:33:25;;;;;;;10.20;4.50;;;;;;;19.32;44.84;99810.83;116737;1199;138427;-58
2021/09/16 10:35:59;;;;;;;11.30;4.50;;;;;;;19.36;44.31;99813.00;116870;1200;22380;-59
2021/09/16 10:38:28;;;;;;;10.90;4.70;;;;;;;19.37;44.14;99808.48;116656;1199;138691;-58
2021/09/16 10:41:22;;;;;;;14.60;4.60;;;;;;;19.40;44.16;99804.41;116852;1198;23399;-58
2021/09/16 10:43:57;;;;;;;17.10;5.60;;;;;;;19.41;43.99;99806.20;116735;1198;137390;-59
2021/09/16 10:46:27;;;;;;;13.10;4.80;;;;;;;19.41;43.82;99802.56;116827;1199;22247;-58
2021/09/16 10:48:56;;;;;;;9.50;4.50;;;;;;;19.39;43.93;99804.86;116874;1199;23354;-59
2021/09/16 10:51:39;;;;;;;13.50;4.50;;;;;;;19.39;44.26;99802.27;116662;1199;137109;-58
2021/09/16 10:54:47;;;;;;;12.90;4.30;;;;;;;19.43;44.98;99802.69;116785;1199;22317;-58
2021/09/16 10:57:18;;;;;;;11.00;4.30;;;;;;;19.49;44.43;99804.83;116211;1203;137526;-58
2021/09/16 10:59:52;;;;;;;10.20;4.40;;;;;;;19.53;43.99;99805.77;116338;1202;22799;-59
2021/09/16 11:02:47;;;;;;;8.20;4.20;;;;;;;19.57;43.98;99806.40;116228;1203;137604;-58
2021/09/16 11:05:17;;;;;;;12.80;4.60;;;;;;;19.62;43.98;99804.30;116287;1202;22270;-59
2021/09/16 11:07:55;;;;;;;9.20;3.80;;;;;;;19.65;43.78;99804.74;116071;1203;139618;-59
2021/09/16 11:10:46;;;;;;;14.20;3.50;;;;;;;19.69;43.76;99800.96;116231;1203;22361;-59
2021/09/16 11:13:36;;;;;;;10.70;4.10;;;;;;;19.72;44.15;99798.97;116220;1203;22256;-59
2021/09/16 11:16:25;;;;;;;9.00;4.40;;;;;;;19.77;44.21;99791.64;116278;1203;22167;-59
2021/09/16 11:18:59;;;;;;;9.90;4.10;;;;;;;19.81;44.03;99788.36;116183;1202;22304;-59
2021/09/16 11:21:28;;;;;;;10.90;4.50;;;;;;;19.85;43.82;99785.80;116094;1203;139631;-59
2021/09/16 11:23:57;;;;;;;10.60;5.20;;;;;;;19.88;43.67;99781.46;115336;1179;22460;-57
2021/09/16 11:26:27;;;;;;;12.90;4.50;;;;;;;19.91;44.32;99779.60;112365;1199;137712;-57
2021/09/16 11:28:59;;;;;;;14.90;4.90;;;;;;;19.95;45.05;99780.27;112252;1199;25102;-57
2021/09/16 11:31:29;;;;;;;11.50;4.30;;;;;;;20.00;45.22;99782.44;116430;1199;22278;-58
2021/09/16 11:34:08;;;;;;;11.20;5.70;;;;;;;20.05;45.19;99779.77;116517;1199;137217;-58
2021/09/16 11:37:08;;;;;;;19.90;4.70;;;;;;;20.10;44.46;99777.74;116527;1199;22368;-58
2021/09/16 11:39:40;;;;;;;11.60;4.30;;;;;;;20.15;44.18;99774.54;116457;1200;137187;-58